Nearby METAR Reports

 

KHIF - Hill Afb/Ogden, Utah, USA
Distance from station: ENE 6mi, 9km
Updated: Wed, 25-Apr-2018 11:58am MDT
Partly cloudy
Partly cloudy
 Wind from SSE
Wind: SSE 7 mph , 11 km/h
Temperature: 61°F , 16°C
Dew Point: 25°F , -4°C
Humidity: 25%
Barometer: 30.24 inHg , 1024 hPa
Clouds: Partly cloudy
Visibility: 10 miles , 16 km
Cloud details: Partly cloudy 20000 ft
2018/04/25 17:58 KHIF 251758Z 16006KT 10SM SCT200 16/M04 A3024 RMK AO2A SLP207 T01641037 10164 20061 57008
KOGD - Ogden, Utah, USA
Distance from station: NNE 9mi, 14km
Updated: Wed, 25-Apr-2018 11:53am MDT
Clear
Clear
 Wind from SSW
Wind: SSW 6 mph , 9 km/h
Temperature: 63°F , 17°C
Dew Point: 25°F , -4°C
Humidity: 24%
Barometer: 30.23 inHg , 1023.7 hPa
Clouds: Clear
Visibility: 10 miles , 16 km
2018/04/25 17:53 KOGD 251753Z 21005KT 10SM CLR 17/M04 A3023 RMK AO2 SLP206 T01671039 10167 20050 58009
 
KSLC - Salt Lake City, Utah, USA
Distance from station: SSE 21mi, 34km
Updated: Wed, 25-Apr-2018 11:54am MDT
Partly cloudy
Partly cloudy
 Wind from SSW
Wind: SSW 10 mph , 17 km/h
Temperature: 64°F , 18°C
Dew Point: 25°F , -4°C
Humidity: 22%
Barometer: 30.22 inHg , 1023.4 hPa
Clouds: Partly cloudy
Visibility: 10 miles , 16 km
Cloud details: Partly cloudy 24000 ft
2018/04/25 17:54 KSLC 251754Z 20009KT 10SM SCT240 18/M04 A3022 RMK AO2 SLP205 T01831039 10183 20094 58011
KLGU - Logan, Utah, USA
Distance from station: NNE 50mi, 80km
Updated: Wed, 25-Apr-2018 11:51am MDT
Clear
Clear
 Wind from NNW
Wind: NNW 6 mph , 9 km/h
Temperature: 57°F , 14°C
Dew Point: 32°F , 0°C
Humidity: 39%
Barometer: 30.24 inHg , 1024 hPa
Clouds: Clear
Visibility: 10 miles , 16 km
2018/04/25 17:51 KLGU 251751Z AUTO 34005KT 10SM CLR 14/00 A3024 RMK AO2 SLP212 T01440000 10150 20006 58015
 
K36U - Heber/Russ Mcdon, Utah, USA
Distance from station: SE 53mi, 85km
Updated: Wed, 11-Oct-2017 6:50pm MDT
NOT Current
Clear
Clear
 Wind from SSW
Wind: SSW 10 mph , 17 km/h, Gust: 18 mph , 30 km/h
Temperature: 63°F , 17°C
Dew Point: 16°F , -9°C
Humidity: 16%
Barometer: 29.87 inHg , 1011.5 hPa
Clouds: Clear
Visibility: 10 miles , 16 km
2017/10/12 00:50 K36U 120050Z AUTO 21009G16KT 10SM CLR 17/M09 A2987 RMK AO2
KEVW - Evanston, Wyoming, USA
Distance from station: ENE 55mi, 89km
Updated: Wed, 25-Apr-2018 11:53am MDT
Clear
Clear
 Wind from varies
Wind: varies 7 mph , 11 km/h
Temperature: 54°F , 12°C
Dew Point: 21°F , -6°C
Humidity: 28%
Barometer: 30.30 inHg , 1026.1 hPa
Clouds: Clear
Visibility: 10 miles , 16 km
2018/04/25 17:53 KEVW 251753Z AUTO VRB06KT 10SM CLR 12/M06 A3030 RMK AO2 SLP220 T01171056 10117 21033 58010
 
KPVU - Provo Muni, Utah, USA
Distance from station: SSE 62mi, 100km
Updated: Wed, 25-Apr-2018 11:56am MDT
Clear
Clear
 Wind from W
Wind: W 9 mph , 15 km/h
Temperature: 59°F , 15°C
Dew Point: 34°F , 1°C
Humidity: 39%
Barometer: 30.25 inHg , 1024.4 hPa
Clouds: Clear
Visibility: 6 miles , 10 km
2018/04/25 17:56 KPVU 251756Z 28008KT 6SM CLR 15/01 A3025 RMK AO2 SLP219 T01500011 10161 20033 58014
KDPG - Dugway Prvg Grou, Utah, USA
Distance from station: SW 75mi, 121km
Updated: Wed, 25-Apr-2018 10:58am MDT
NOT Current
Few Clouds
Few Clouds
 Wind from SW
Wind: SW 3 mph , 6 km/h
Temperature: 61°F , 16°C
Dew Point: 23°F , -5°C
Humidity: 23%
Barometer: 30.25 inHg , 1024.4 hPa
Clouds: Few Clouds
Visibility: 10 miles , 16 km
Cloud details: Few Clouds 24000 ft
2018/04/25 16:58 KDPG 251658Z 22003KT 10SM FEW240 16/M05 A3025 RMK SLP217 T01641048
 
KENV - Wendover (aut), Utah, USA
Distance from station: WSW 105mi, 169km
Updated: Wed, 25-Apr-2018 11:56am MDT
Clear
Clear
 Wind from varies
Wind: varies 6 mph , 9 km/h
Temperature: 61°F , 16°C
Dew Point: 25°F , -4°C
Humidity: 25%
Barometer: 30.23 inHg , 1023.7 hPa
Clouds: Clear
Visibility: 10 miles , 16 km
2018/04/25 17:56 KENV 251756Z AUTO VRB05KT 10SM CLR 16/M04 A3023 RMK AO2 SLP227 T01611039 10161 20039 56007
KPUC - Price, Utah, USA
Distance from station: SE 123mi, 197km
Updated: Wed, 25-Apr-2018 11:53am MDT
Clear
Clear
 Wind from SE
Wind: SE 8 mph , 13 km/h
Temperature: 57°F , 14°C
Dew Point: 18°F , -8°C
Humidity: 21%
Barometer: 30.31 inHg , 1026.4 hPa
Clouds: Clear
Visibility: 10 miles , 16 km
2018/04/25 17:53 KPUC 251753Z AUTO 13007KT 10SM CLR 14/M08 A3031 RMK AO2 SLP240 T01441078 10144 20033 58005
 
KPIH - Pocatello, Idaho, USA
Distance from station: NNW 130mi, 208km
Updated: Wed, 25-Apr-2018 11:53am MDT
Clear
Clear
 Wind from varies
Wind: varies 3 mph , 6 km/h
Temperature: 61°F , 16°C
Dew Point: 28°F , -2°C
Humidity: 29%
Barometer: 30.22 inHg , 1023.4 hPa
Clouds: Clear
Visibility: 10 miles , 16 km
2018/04/25 17:53 KPIH 251753Z VRB03KT 10SM CLR 16/M02 A3022 RMK AO2 SLP218 T01611017 10172 21017 58014 $
KBYI - Burley, Idaho, USA
Distance from station: NW 134mi, 216km
Updated: Wed, 25-Apr-2018 11:53am MDT
Clear
Clear
 Wind from NNE
Wind: NNE 10 mph , 17 km/h
Temperature: 63°F , 17°C
Dew Point: 30°F , -1°C
Humidity: 30%
Barometer: 30.19 inHg , 1022.4 hPa
Clouds: Clear
Visibility: 10 miles , 16 km
2018/04/25 17:53 KBYI 251753Z AUTO 03009KT 10SM CLR 17/M01 A3019 RMK AO2 SLP207 T01671011 10167 20006 58011
 
KVEL - Vernal, Utah, USA
Distance from station: ESE 140mi, 226km
Updated: Wed, 25-Apr-2018 11:53am MDT
Clear
Clear
 Wind from SSW
Wind: SSW 10 mph , 17 km/h
Temperature: 54°F , 12°C
Dew Point: 23°F , -5°C
Humidity: 30%
Barometer: 30.34 inHg , 1027.4 hPa
Clouds: Clear
Visibility: 10 miles , 16 km
2018/04/25 17:53 KVEL 251753Z AUTO 21009KT 10SM CLR 12/M05 A3034 RMK AO2 SLP254 T01171050 10117 21028 58015
KBPI - Big Piney, Wyoming, USA
Distance from station: NE 145mi, 234km
Updated: Wed, 25-Apr-2018 11:53am MDT
Clear
Clear
 Wind from SW
Wind: SW 8 mph , 13 km/h
Temperature: 48°F , 9°C
Wind Chill: 44°F , 7°C
Dew Point: 19°F , -7°C
Humidity: 32%
Barometer: 30.31 inHg , 1026.4 hPa
Clouds: Clear
Visibility: 10 miles , 16 km
2018/04/25 17:53 KBPI 251753Z AUTO 22007KT 10SM CLR 09/M07 A3031 RMK AO2 SLP238 T00891067 10089 21100 58019